Terminal Aerodrome Forecast
Issued by NWS Billings, MT

Home | Current Version | Previous Version | Text Only | Print | Product List | Glossary On
Versions: 1 2 3 4 5 6 7 8 9 10 11 12 13 14
000
FTUS45 KBYZ 201120
TAFMLS
TAF
KMLS 201120Z 2012/2112 16009KT P6SM BKN150
     FM201400 29015KT P6SM SCT100
     FM201700 29021G30KT P6SM SCT150
     FM210200 31010KT P6SM SKC=

USA.gov is the U.S. government's official web portal to all federal, state and local government web resources and services.